createdAt,value
2022-11-25T00:00:50.753Z,84
2022-11-25T00:02:51.530Z,84
2022-11-25T00:04:50.872Z,84
2022-11-25T00:06:51.041Z,83
2022-11-25T00:08:50.634Z,83
2022-11-25T00:10:50.259Z,84
2022-11-25T00:12:50.854Z,84
2022-11-25T00:14:50.377Z,84
2022-11-25T00:16:51.049Z,84
2022-11-25T00:18:50.698Z,84
2022-11-25T00:20:50.507Z,84
2022-11-25T00:22:50.088Z,84
2022-11-25T00:24:50.516Z,84
2022-11-25T00:26:50.570Z,84
2022-11-25T00:28:50.158Z,84
2022-11-25T00:30:50.864Z,84
2022-11-25T00:32:50.398Z,84
2022-11-25T00:34:50.638Z,84
2022-11-25T00:36:50.505Z,84
2022-11-25T00:38:50.438Z,84
2022-11-25T00:40:50.151Z,84
2022-11-25T00:42:50.826Z,84
2022-11-25T00:44:50.307Z,84
2022-11-25T00:46:50.078Z,84
2022-11-25T00:48:50.689Z,84
2022-11-25T00:50:50.309Z,84
2022-11-25T00:52:50.151Z,84
2022-11-25T00:54:50.902Z,84
2022-11-25T00:56:51.355Z,84
2022-11-25T00:58:50.976Z,84
2022-11-25T01:00:50.954Z,84
2022-11-25T01:02:50.609Z,84
2022-11-25T01:04:51.121Z,84
2022-11-25T01:06:50.196Z,84
2022-11-25T01:08:50.787Z,84
2022-11-25T01:10:50.488Z,84
2022-11-25T01:12:50.099Z,84
2022-11-25T01:14:50.943Z,84
2022-11-25T01:16:50.339Z,84
2022-11-25T01:18:50.204Z,84
2022-11-25T01:20:50.710Z,84
2022-11-25T01:22:50.554Z,84
2022-11-25T01:24:50.815Z,84
2022-11-25T01:26:50.809Z,84
2022-11-25T01:28:50.686Z,84
2022-11-25T01:30:50.225Z,84
2022-11-25T01:32:50.173Z,84
2022-11-25T01:34:50.313Z,84
2022-11-25T01:36:50.271Z,84
2022-11-25T01:38:50.155Z,84
2022-11-25T01:40:50.876Z,84
2022-11-25T01:42:50.530Z,84
2022-11-25T01:44:50.186Z,84
2022-11-25T01:46:50.177Z,84
2022-11-25T01:48:50.259Z,84
2022-11-25T01:50:50.731Z,84
2022-11-25T01:52:50.705Z,84
2022-11-25T01:54:50.285Z,84
2022-11-25T01:56:50.211Z,84
2022-11-25T01:58:50.886Z,84
2022-11-25T02:00:50.885Z,84
2022-11-25T02:02:50.904Z,84
2022-11-25T02:04:50.049Z,84
2022-11-25T02:06:50.881Z,84
2022-11-25T02:08:50.493Z,84
2022-11-25T02:10:50.092Z,84
2022-11-25T02:12:50.697Z,84
2022-11-25T02:14:50.322Z,84
2022-11-25T02:16:50.766Z,84
2022-11-25T02:18:50.585Z,84
2022-11-25T02:20:50.187Z,84
2022-11-25T02:22:50.993Z,84
2022-11-25T02:24:50.597Z,84
2022-11-25T02:26:50.614Z,84
2022-11-25T02:28:50.245Z,84
2022-11-25T02:30:50.777Z,84
2022-11-25T02:32:50.484Z,84
2022-11-25T02:34:50.688Z,84
2022-11-25T02:36:50.672Z,84
2022-11-25T02:38:50.320Z,84
2022-11-25T02:40:50.130Z,84
2022-11-25T02:42:50.733Z,84
2022-11-25T02:44:50.557Z,84
2022-11-25T02:46:50.354Z,84
2022-11-25T02:49:11.439Z,84
2022-11-25T02:50:50.548Z,84
2022-11-25T02:52:50.218Z,84
2022-11-25T02:54:50.836Z,84
2022-11-25T02:56:50.882Z,84
2022-11-25T02:58:50.640Z,84
2022-11-25T03:00:50.605Z,84
2022-11-25T03:02:50.303Z,84
2022-11-25T03:04:50.481Z,84
2022-11-25T03:06:50.356Z,84
2022-11-25T03:08:50.360Z,84
2022-11-25T03:10:50.154Z,84
2022-11-25T03:12:50.732Z,84
2022-11-25T03:14:50.389Z,84
2022-11-25T03:16:50.878Z,84
2022-11-25T03:18:50.409Z,84
2022-11-25T03:20:50.214Z,84
2022-11-25T03:22:50.776Z,84
2022-11-25T03:24:50.798Z,84
2022-11-25T03:26:50.624Z,84
2022-11-25T03:28:50.497Z,84
2022-11-25T03:30:50.052Z,84
2022-11-25T03:32:50.717Z,84
2022-11-25T03:34:50.734Z,84
2022-11-25T03:36:51.031Z,84
2022-11-25T03:38:50.566Z,84
2022-11-25T03:40:50.138Z,84
2022-11-25T03:42:50.981Z,84
2022-11-25T03:44:50.525Z,84
2022-11-25T03:46:50.409Z,84
2022-11-25T03:48:51.004Z,84
2022-11-25T03:50:50.653Z,84
2022-11-25T03:52:50.256Z,84
2022-11-25T03:54:50.820Z,84
2022-11-25T03:56:50.756Z,84
2022-11-25T03:58:50.266Z,84
2022-11-25T04:00:50.156Z,84
2022-11-25T04:02:51.022Z,84
2022-11-25T04:04:50.161Z,84
2022-11-25T04:06:50.905Z,84
2022-11-25T04:08:50.569Z,84
2022-11-25T04:10:50.294Z,84
2022-11-25T04:12:50.961Z,84
2022-11-25T04:14:50.420Z,84
2022-11-25T04:16:50.772Z,84
2022-11-25T04:18:50.230Z,84
2022-11-25T04:20:50.838Z,84
2022-11-25T04:22:50.242Z,84
2022-11-25T04:24:50.838Z,84
2022-11-25T04:26:50.748Z,84
2022-11-25T04:28:53.468Z,84
2022-11-25T04:30:50.479Z,84
2022-11-25T04:32:50.146Z,85
2022-11-25T04:34:50.344Z,84
2022-11-25T04:36:50.380Z,84
2022-11-25T04:38:50.084Z,84
2022-11-25T04:40:50.561Z,84
2022-11-25T04:42:50.358Z,85
2022-11-25T04:45:23.978Z,85
2022-11-25T04:46:50.720Z,85
2022-11-25T04:48:50.204Z,85
2022-11-25T04:50:50.898Z,85
2022-11-25T04:52:50.313Z,84
2022-11-25T04:54:50.863Z,85
2022-11-25T04:56:50.718Z,85
2022-11-25T04:58:50.311Z,85
2022-11-25T05:00:51.214Z,85
2022-11-25T05:02:51.142Z,85
2022-11-25T05:04:50.376Z,84
2022-11-25T05:06:50.346Z,84
2022-11-25T05:08:50.968Z,85
2022-11-25T05:10:50.429Z,84
2022-11-25T05:12:50.992Z,85
2022-11-25T05:14:50.815Z,84
2022-11-25T05:16:50.893Z,84
2022-11-25T05:18:50.686Z,85
2022-11-25T05:20:50.250Z,85
2022-11-25T05:22:50.086Z,85
2022-11-25T05:24:50.736Z,85
2022-11-25T05:26:50.779Z,85
2022-11-25T05:28:50.271Z,85
2022-11-25T05:30:51.290Z,85
2022-11-25T05:32:50.952Z,85
2022-11-25T05:34:50.182Z,85
2022-11-25T05:36:51.071Z,85
2022-11-25T05:38:50.798Z,85
2022-11-25T05:40:50.436Z,85
2022-11-25T05:42:50.031Z,85
2022-11-25T05:44:50.858Z,85
2022-11-25T05:46:50.706Z,85
2022-11-25T05:48:50.618Z,85
2022-11-25T05:50:50.320Z,85
2022-11-25T05:52:50.112Z,85
2022-11-25T05:54:58.041Z,85
2022-11-25T05:56:50.938Z,85
2022-11-25T05:58:50.382Z,85
2022-11-25T06:00:51.013Z,85
2022-11-25T06:02:51.881Z,85
2022-11-25T06:04:50.441Z,85
2022-11-25T06:06:50.402Z,85
2022-11-25T06:08:50.996Z,85
2022-11-25T06:10:50.922Z,85
2022-11-25T06:12:50.383Z,85
2022-11-25T06:14:50.960Z,85
2022-11-25T06:16:50.819Z,85
2022-11-25T06:18:50.395Z,85
2022-11-25T06:20:51.039Z,85
2022-11-25T06:22:50.582Z,85
2022-11-25T06:25:04.550Z,85
2022-11-25T06:26:50.486Z,85
2022-11-25T06:28:50.302Z,85
2022-11-25T06:30:51.312Z,85
2022-11-25T06:32:50.888Z,85
2022-11-25T06:34:50.934Z,85
2022-11-25T06:36:50.172Z,85
2022-11-25T06:38:50.792Z,85
2022-11-25T06:40:50.385Z,85
2022-11-25T06:42:50.992Z,85
2022-11-25T06:44:50.616Z,85
2022-11-25T06:46:51.242Z,85
2022-11-25T06:48:51.020Z,85
2022-11-25T06:50:50.634Z,85
2022-11-25T06:52:50.249Z,85
2022-11-25T06:54:50.843Z,85
2022-11-25T06:56:50.960Z,85
2022-11-25T06:58:50.778Z,85
2022-11-25T07:00:50.281Z,85
2022-11-25T07:02:50.500Z,85
2022-11-25T07:04:50.541Z,85
2022-11-25T07:06:50.565Z,85
2022-11-25T07:08:50.144Z,85
2022-11-25T07:10:51.000Z,85
2022-11-25T07:12:50.645Z,85
2022-11-25T07:14:50.395Z,85
2022-11-25T07:16:50.441Z,85
2022-11-25T07:18:50.248Z,85
2022-11-25T07:20:50.847Z,85
2022-11-25T07:22:50.669Z,85
2022-11-25T07:24:50.255Z,85
2022-11-25T07:26:50.257Z,85
2022-11-25T07:28:50.902Z,85
2022-11-25T07:31:30.983Z,85
2022-11-25T07:32:50.561Z,85
2022-11-25T07:34:50.780Z,85
2022-11-25T07:36:50.791Z,86
2022-11-25T07:38:50.399Z,86
2022-11-25T07:40:51.007Z,86
2022-11-25T07:42:50.623Z,86
2022-11-25T07:44:50.415Z,86
2022-11-25T07:46:50.899Z,86
2022-11-25T07:48:50.685Z,86
2022-11-25T07:50:50.289Z,86
2022-11-25T07:52:50.095Z,86
2022-11-25T07:54:50.732Z,86
2022-11-25T07:56:50.725Z,86
2022-11-25T07:58:50.289Z,86
2022-11-25T08:00:50.960Z,86
2022-11-25T08:02:51.029Z,86
2022-11-25T08:04:50.188Z,86
2022-11-25T08:06:51.039Z,86
2022-11-25T08:08:50.777Z,86
2022-11-25T08:10:50.437Z,86
2022-11-25T08:12:50.197Z,86
2022-11-25T08:14:50.864Z,86
2022-11-25T08:16:50.654Z,86
2022-11-25T08:18:50.493Z,86
2022-11-25T08:20:50.113Z,86
2022-11-25T08:22:50.910Z,86
2022-11-25T08:24:50.586Z,86
2022-11-25T08:26:50.537Z,86
2022-11-25T08:28:50.162Z,86
2022-11-25T08:30:50.988Z,86
2022-11-25T08:32:50.551Z,86
2022-11-25T08:34:50.841Z,86
2022-11-25T08:36:50.658Z,86
2022-11-25T08:38:50.250Z,86
2022-11-25T08:40:51.074Z,86
2022-11-25T08:42:50.670Z,86
2022-11-25T08:44:50.449Z,86
2022-11-25T08:46:50.543Z,86
2022-11-25T08:48:50.593Z,86
2022-11-25T08:50:50.090Z,86
2022-11-25T08:52:50.736Z,86
2022-11-25T08:54:50.306Z,86
2022-11-25T08:56:50.390Z,86
2022-11-25T08:58:50.972Z,86
2022-11-25T09:00:50.604Z,86
2022-11-25T09:02:50.527Z,86
2022-11-25T09:04:50.852Z,86
2022-11-25T09:06:50.967Z,86
2022-11-25T09:08:50.484Z,86
2022-11-25T09:10:51.288Z,86
2022-11-25T09:12:50.833Z,86
2022-11-25T09:14:50.506Z,86
2022-11-25T09:16:50.307Z,86
2022-11-25T09:18:56.903Z,86
2022-11-25T09:20:50.512Z,86
2022-11-25T09:22:50.162Z,86
2022-11-25T09:24:50.586Z,86
2022-11-25T09:26:50.569Z,86
2022-11-25T09:28:50.186Z,86
2022-11-25T09:30:51.212Z,86
2022-11-25T09:32:50.821Z,86
2022-11-25T09:34:50.831Z,86
2022-11-25T09:36:50.462Z,85
2022-11-25T09:38:50.262Z,86
2022-11-25T09:40:50.846Z,86
2022-11-25T09:42:50.500Z,86
2022-11-25T09:44:50.061Z,86
2022-11-25T09:46:51.250Z,86
2022-11-25T09:48:50.168Z,86
2022-11-25T09:50:50.764Z,86
2022-11-25T09:52:50.614Z,86
2022-11-25T09:54:50.149Z,85
2022-11-25T09:56:50.967Z,85
2022-11-25T09:58:50.617Z,85
2022-11-25T10:00:50.285Z,86
2022-11-25T10:02:51.751Z,85
2022-11-25T10:04:50.884Z,85
2022-11-25T10:06:56.415Z,85
2022-11-25T10:08:50.932Z,85
2022-11-25T10:10:50.493Z,85
2022-11-25T10:12:50.940Z,85
2022-11-25T10:14:50.558Z,84
2022-11-25T10:16:52.333Z,83
2022-11-25T10:18:50.935Z,83
2022-11-25T10:20:50.565Z,83
2022-11-25T10:22:50.178Z,83
2022-11-25T10:24:50.987Z,83
2022-11-25T10:26:50.903Z,83
2022-11-25T10:28:50.628Z,83
2022-11-25T10:30:50.552Z,83
2022-11-25T10:32:50.255Z,83
2022-11-25T10:34:50.212Z,83
2022-11-25T10:36:50.065Z,83
2022-11-25T10:38:50.686Z,83
2022-11-25T10:40:50.364Z,83
2022-11-25T10:42:50.091Z,83
2022-11-25T10:44:50.514Z,82
2022-11-25T10:47:15.840Z,82
2022-11-25T10:48:51.041Z,82
2022-11-25T10:50:50.790Z,82
2022-11-25T10:52:50.159Z,82
2022-11-25T10:54:51.025Z,82
2022-11-25T10:56:51.045Z,81
2022-11-25T10:58:50.820Z,81
2022-11-25T11:00:50.440Z,81
2022-11-25T11:02:50.375Z,82
2022-11-25T11:04:50.481Z,82
2022-11-25T11:06:50.279Z,82
2022-11-25T11:08:50.166Z,82
2022-11-25T11:10:57.818Z,82
2022-11-25T11:12:50.593Z,82
2022-11-25T11:14:50.155Z,81
2022-11-25T11:16:50.160Z,81
2022-11-25T11:18:50.766Z,81
2022-11-25T11:20:50.435Z,80
2022-11-25T11:22:51.034Z,80
2022-11-25T11:24:50.577Z,80
2022-11-25T11:26:50.661Z,80
2022-11-25T11:28:50.242Z,79
2022-11-25T11:30:50.073Z,77
2022-11-25T11:32:50.661Z,77
2022-11-25T11:34:50.730Z,77
2022-11-25T11:36:50.727Z,78
2022-11-25T11:38:50.314Z,79
2022-11-25T11:40:50.970Z,79
2022-11-25T11:42:50.558Z,79
2022-11-25T11:44:50.365Z,78
2022-11-25T11:46:50.733Z,77
2022-11-25T11:48:54.124Z,77
2022-11-25T11:50:50.596Z,76
2022-11-25T11:52:50.441Z,76
2022-11-25T11:54:51.030Z,76
2022-11-25T11:56:56.158Z,76
2022-11-25T11:58:50.781Z,76
2022-11-25T12:00:50.190Z,77
2022-11-25T12:02:51.187Z,77
2022-11-25T12:04:50.429Z,77
2022-11-25T12:06:50.478Z,76
2022-11-25T12:08:50.038Z,74
2022-11-25T12:10:50.834Z,74
2022-11-25T12:12:50.477Z,74
2022-11-25T12:14:50.297Z,74
2022-11-25T12:16:50.785Z,73
2022-11-25T12:18:50.528Z,73
2022-11-25T12:20:50.098Z,73
2022-11-25T12:22:50.703Z,74
2022-11-25T12:24:50.378Z,75
2022-11-25T12:26:50.172Z,75
2022-11-25T12:28:50.998Z,75
2022-11-25T12:30:50.610Z,75
2022-11-25T12:32:50.438Z,75
2022-11-25T12:34:50.440Z,75
2022-11-25T12:36:50.539Z,75
2022-11-25T12:38:50.063Z,75
2022-11-25T12:40:50.837Z,75
2022-11-25T12:42:50.480Z,76
2022-11-25T12:44:50.305Z,75
2022-11-25T12:46:50.280Z,75
2022-11-25T12:48:50.912Z,75
2022-11-25T12:50:50.336Z,75
2022-11-25T12:52:50.932Z,75
2022-11-25T12:54:50.576Z,75
2022-11-25T12:56:50.630Z,75
2022-11-25T12:58:50.738Z,75
2022-11-25T13:00:50.802Z,75
2022-11-25T13:02:51.024Z,75
2022-11-25T13:04:50.249Z,75
2022-11-25T13:06:50.265Z,75
2022-11-25T13:08:50.842Z,75
2022-11-25T13:10:50.557Z,75
2022-11-25T13:12:52.522Z,74
2022-11-25T13:14:53.075Z,75
2022-11-25T13:16:54.261Z,75
2022-11-25T13:18:50.161Z,75
2022-11-25T13:20:50.802Z,75
2022-11-25T13:22:50.373Z,75
2022-11-25T13:24:50.236Z,75
2022-11-25T13:26:50.266Z,75
2022-11-25T13:28:51.025Z,75
2022-11-25T13:30:50.616Z,75
2022-11-25T13:32:50.440Z,75
2022-11-25T13:34:50.467Z,75
2022-11-25T13:36:50.514Z,75
2022-11-25T13:38:50.165Z,76
2022-11-25T13:40:50.885Z,76
2022-11-25T13:42:50.526Z,76
2022-11-25T13:44:50.355Z,76
2022-11-25T13:46:50.135Z,76
2022-11-25T13:48:50.778Z,76
2022-11-25T13:51:12.355Z,76
2022-11-25T13:52:50.482Z,76
2022-11-25T13:54:50.257Z,76
2022-11-25T13:56:51.032Z,76
2022-11-25T13:58:50.845Z,77
2022-11-25T14:00:50.503Z,77
2022-11-25T14:02:51.419Z,77
2022-11-25T14:04:50.477Z,77
2022-11-25T14:06:50.330Z,77
2022-11-25T14:08:50.926Z,77
2022-11-25T14:10:50.546Z,77
2022-11-25T14:12:50.125Z,77
2022-11-25T14:14:50.898Z,77
2022-11-25T14:16:51.410Z,77
2022-11-25T14:19:51.047Z,77
2022-11-25T14:20:50.962Z,77
2022-11-25T14:22:50.429Z,77
2022-11-25T14:24:50.215Z,77
2022-11-25T14:26:51.269Z,77
2022-11-25T14:28:50.067Z,77
2022-11-25T14:30:54.358Z,77
2022-11-25T14:32:50.097Z,77
2022-11-25T14:34:50.313Z,77
2022-11-25T14:36:50.374Z,78
2022-11-25T14:38:50.934Z,78
2022-11-25T14:40:55.493Z,78
2022-11-25T14:42:50.952Z,78
2022-11-25T14:44:50.567Z,78
2022-11-25T14:46:50.615Z,78
2022-11-25T14:48:50.198Z,78
2022-11-25T14:50:50.852Z,78
2022-11-25T14:52:50.423Z,78
2022-11-25T14:54:50.258Z,78
2022-11-25T14:56:50.151Z,78
2022-11-25T14:58:50.781Z,78
2022-11-25T15:00:50.232Z,78
2022-11-25T15:02:51.177Z,78
2022-11-25T15:04:50.221Z,78
2022-11-25T15:06:50.240Z,79
2022-11-25T15:08:50.890Z,79
2022-11-25T15:10:50.703Z,79
2022-11-25T15:12:54.351Z,79
2022-11-25T15:14:50.125Z,79
2022-11-25T15:16:50.715Z,79
2022-11-25T15:18:50.685Z,79
2022-11-25T15:20:50.119Z,79
2022-11-25T15:22:50.768Z,79
2022-11-25T15:25:00.350Z,79
2022-11-25T15:26:50.196Z,79
2022-11-25T15:28:50.806Z,79
2022-11-25T15:30:50.475Z,79
2022-11-25T15:32:51.097Z,79
2022-11-25T15:34:51.044Z,79
2022-11-25T15:36:55.167Z,80
2022-11-25T15:38:50.071Z,80
2022-11-25T15:40:50.743Z,80
2022-11-25T15:42:50.525Z,80
2022-11-25T15:44:50.076Z,80
2022-11-25T15:46:50.913Z,80
2022-11-25T15:48:50.558Z,80
2022-11-25T15:50:50.182Z,80
2022-11-25T15:52:50.741Z,80
2022-11-25T15:54:50.412Z,80
2022-11-25T15:56:50.382Z,80
2022-11-25T15:58:50.889Z,80
2022-11-25T16:00:50.968Z,80
2022-11-25T16:02:51.241Z,80
2022-11-25T16:04:50.573Z,80
2022-11-25T16:06:50.597Z,80
2022-11-25T16:08:50.186Z,80
2022-11-25T16:10:50.841Z,80
2022-11-25T16:12:50.433Z,80
2022-11-25T16:14:51.018Z,80
2022-11-25T16:16:50.472Z,80
2022-11-25T16:18:50.082Z,80
2022-11-25T16:20:50.927Z,80
2022-11-25T16:22:50.732Z,81
2022-11-25T16:24:50.283Z,81
2022-11-25T16:26:50.697Z,81
2022-11-25T16:28:50.535Z,81
2022-11-25T16:30:59.784Z,81
2022-11-25T16:32:50.339Z,81
2022-11-25T16:34:50.403Z,81
2022-11-25T16:36:50.414Z,81
2022-11-25T16:38:50.206Z,81
2022-11-25T16:40:50.836Z,81
2022-11-25T16:42:50.862Z,81
2022-11-25T16:44:50.489Z,81
2022-11-25T16:46:50.513Z,81
2022-11-25T16:48:50.093Z,81
2022-11-25T16:50:50.908Z,81
2022-11-25T16:52:50.610Z,81
2022-11-25T16:54:50.476Z,81
2022-11-25T16:56:50.416Z,81
2022-11-25T16:58:50.969Z,81
2022-11-25T17:00:50.589Z,81
2022-11-25T17:02:50.681Z,81
2022-11-25T17:04:50.981Z,81
2022-11-25T17:07:33.395Z,81
2022-11-25T17:08:50.850Z,81
2022-11-25T17:10:50.445Z,81
2022-11-25T17:12:51.085Z,81
2022-11-25T17:14:51.554Z,81
2022-11-25T17:16:50.923Z,81
2022-11-25T17:18:50.877Z,81
2022-11-25T17:20:50.716Z,81
2022-11-25T17:22:50.368Z,81
2022-11-25T17:24:50.949Z,81
2022-11-25T17:26:50.975Z,81
2022-11-25T17:28:50.778Z,81
2022-11-25T17:30:50.471Z,81
2022-11-25T17:32:50.191Z,81
2022-11-25T17:34:50.245Z,81
2022-11-25T17:36:50.184Z,81
2022-11-25T17:38:50.840Z,81
2022-11-25T17:40:50.451Z,81
2022-11-25T17:42:50.278Z,81
2022-11-25T17:44:54.970Z,81
2022-11-25T17:46:50.121Z,81
2022-11-25T17:48:50.923Z,81
2022-11-25T17:50:50.557Z,81
2022-11-25T17:52:50.402Z,81
2022-11-25T17:54:50.944Z,81
2022-11-25T17:56:53.189Z,81
2022-11-25T17:58:50.997Z,82
2022-11-25T18:00:51.049Z,82
2022-11-25T18:02:51.381Z,82
2022-11-25T18:04:50.496Z,82
2022-11-25T18:06:50.486Z,82
2022-11-25T18:08:50.061Z,82
2022-11-25T18:10:50.688Z,82
2022-11-25T18:12:50.274Z,82
2022-11-25T18:14:50.905Z,82
2022-11-25T18:16:51.460Z,82
2022-11-25T18:18:50.964Z,82
2022-11-25T18:20:50.770Z,82
2022-11-25T18:22:50.330Z,82
2022-11-25T18:24:50.989Z,82
2022-11-25T18:26:50.984Z,82
2022-11-25T18:28:50.562Z,82
2022-11-25T18:30:50.577Z,82
2022-11-25T18:32:50.254Z,82
2022-11-25T18:34:50.292Z,82
2022-11-25T18:36:50.219Z,82
2022-11-25T18:38:50.890Z,82
2022-11-25T18:40:54.740Z,82
2022-11-25T18:42:50.326Z,82
2022-11-25T18:44:50.937Z,82
2022-11-25T18:46:50.741Z,82
2022-11-25T18:48:50.378Z,82
2022-11-25T18:50:50.955Z,82
2022-11-25T18:52:50.594Z,82
2022-11-25T18:54:50.239Z,82
2022-11-25T18:56:50.214Z,82
2022-11-25T18:58:51.044Z,82
2022-11-25T19:00:51.096Z,82
2022-11-25T19:02:51.187Z,82
2022-11-25T19:04:50.262Z,82
2022-11-25T19:06:50.308Z,82
2022-11-25T19:08:50.898Z,82
2022-11-25T19:10:50.354Z,82
2022-11-25T19:12:50.132Z,82
2022-11-25T19:14:50.723Z,82
2022-11-25T19:16:51.330Z,82
2022-11-25T19:18:51.213Z,82
2022-11-25T19:20:50.776Z,82
2022-11-25T19:22:50.405Z,82
2022-11-25T19:24:51.053Z,82
2022-11-25T19:26:51.012Z,82
2022-11-25T19:28:50.634Z,82
2022-11-25T19:30:50.065Z,82
2022-11-25T19:32:50.888Z,82
2022-11-25T19:34:50.893Z,82
2022-11-25T19:36:50.926Z,82
2022-11-25T19:38:50.513Z,82
2022-11-25T19:40:50.122Z,82
2022-11-25T19:42:50.758Z,82
2022-11-25T19:44:50.326Z,82
2022-11-25T19:47:16.328Z,82
2022-11-25T19:48:50.414Z,82
2022-11-25T19:50:51.006Z,82
2022-11-25T19:52:50.606Z,82
2022-11-25T19:54:50.239Z,82
2022-11-25T19:56:50.282Z,82
2022-11-25T19:58:50.826Z,82
2022-11-25T20:00:51.072Z,82
2022-11-25T20:02:51.166Z,82
2022-11-25T20:04:50.325Z,83
2022-11-25T20:06:50.125Z,83
2022-11-25T20:08:50.765Z,83
2022-11-25T20:10:50.358Z,83
2022-11-25T20:12:50.981Z,83
2022-11-25T20:14:50.780Z,83
2022-11-25T20:16:51.595Z,83
2022-11-25T20:18:50.466Z,83
2022-11-25T20:20:51.015Z,83
2022-11-25T20:22:50.633Z,83
2022-11-25T20:24:50.306Z,83
2022-11-25T20:26:50.249Z,83
2022-11-25T20:28:50.096Z,83
2022-11-25T20:30:50.674Z,83
2022-11-25T20:32:50.519Z,83
2022-11-25T20:34:50.509Z,83
2022-11-25T20:36:50.544Z,83
2022-11-25T20:38:50.146Z,82
2022-11-25T20:40:50.779Z,83
2022-11-25T20:42:50.146Z,83
2022-11-25T20:44:58.369Z,82
2022-11-25T20:46:50.401Z,82
2022-11-25T20:48:51.193Z,82
2022-11-25T20:50:50.124Z,82
2022-11-25T20:52:50.635Z,82
2022-11-25T20:54:50.284Z,82
2022-11-25T20:56:50.307Z,83
2022-11-25T20:58:50.930Z,82
2022-11-25T21:00:58.484Z,82
2022-11-25T21:02:50.640Z,82
2022-11-25T21:04:50.773Z,82
2022-11-25T21:06:50.551Z,82
2022-11-25T21:08:50.149Z,83
2022-11-25T21:10:50.926Z,83
2022-11-25T21:12:50.423Z,83
2022-11-25T21:14:50.211Z,83
2022-11-25T21:16:51.358Z,83
2022-11-25T21:18:51.043Z,83
2022-11-25T21:20:50.641Z,84
2022-11-25T21:22:50.298Z,84
2022-11-25T21:24:50.070Z,84
2022-11-25T21:26:50.925Z,84
2022-11-25T21:28:50.525Z,84
2022-11-25T21:30:50.098Z,84
2022-11-25T21:32:50.721Z,83
2022-11-25T21:34:50.805Z,84
2022-11-25T21:36:50.791Z,84
2022-11-25T21:38:50.404Z,84
2022-11-25T21:40:50.976Z,84
2022-11-25T21:42:50.612Z,84
2022-11-25T21:44:51.022Z,84
2022-11-25T21:46:50.835Z,84
2022-11-25T21:48:50.450Z,84
2022-11-25T21:50:50.131Z,84
2022-11-25T21:52:50.675Z,84
2022-11-25T21:54:50.301Z,84
2022-11-25T21:56:50.316Z,84
2022-11-25T21:58:50.949Z,84
2022-11-25T22:00:50.964Z,84
2022-11-25T22:02:50.942Z,84
2022-11-25T22:04:50.164Z,84
2022-11-25T22:06:50.972Z,84
2022-11-25T22:08:50.631Z,84
2022-11-25T22:10:50.416Z,84
2022-11-25T22:12:51.026Z,84
2022-11-25T22:14:50.846Z,84
2022-11-25T22:16:51.245Z,84
2022-11-25T22:18:50.859Z,84
2022-11-25T22:20:54.203Z,84
2022-11-25T22:22:50.662Z,84
2022-11-25T22:24:50.517Z,84
2022-11-25T22:26:58.808Z,84
2022-11-25T22:28:50.573Z,84
2022-11-25T22:30:50.208Z,84
2022-11-25T22:32:50.512Z,84
2022-11-25T22:34:50.609Z,84
2022-11-25T22:36:50.389Z,84
2022-11-25T22:38:51.019Z,84
2022-11-25T22:40:50.612Z,84
2022-11-25T22:42:50.048Z,84
2022-11-25T22:44:50.652Z,84
2022-11-25T22:46:50.454Z,84
2022-11-25T22:48:50.132Z,84
2022-11-25T22:50:50.791Z,84
2022-11-25T22:52:50.347Z,84
2022-11-25T22:54:50.941Z,84
2022-11-25T22:56:50.750Z,84
2022-11-25T22:58:50.375Z,84
2022-11-25T23:00:51.282Z,84
2022-11-25T23:02:50.204Z,84
2022-11-25T23:04:50.406Z,84
2022-11-25T23:06:50.433Z,84
2022-11-25T23:08:51.028Z,84
2022-11-25T23:10:50.872Z,84
2022-11-25T23:12:50.449Z,84
2022-11-25T23:14:50.073Z,84
2022-11-25T23:16:50.541Z,84
2022-11-25T23:18:50.096Z,84
2022-11-25T23:20:50.757Z,84
2022-11-25T23:22:50.430Z,84
2022-11-25T23:24:50.178Z,84
2022-11-25T23:26:50.158Z,84
2022-11-25T23:28:50.753Z,84
2022-11-25T23:30:50.428Z,84
2022-11-25T23:32:51.042Z,84
2022-11-25T23:34:50.126Z,84
2022-11-25T23:36:50.999Z,84
2022-11-25T23:38:50.800Z,84
2022-11-25T23:40:50.244Z,84
2022-11-25T23:42:50.081Z,84
2022-11-25T23:44:50.483Z,84
2022-11-25T23:46:50.314Z,84
2022-11-25T23:48:50.989Z,84
2022-11-25T23:50:50.506Z,84
2022-11-25T23:52:50.195Z,84
2022-11-25T23:54:50.783Z,84
2022-11-25T23:56:50.822Z,84
2022-11-25T23:58:50.544Z,84
